sensor_id;sensor_type;location;lat;lon;timestamp;pressure;altitude;pressure_sealevel;temperature;humidity
71004;BME280;59025;42.050;-8.660;2022-08-30T00:02:08;100882.06;;;18.44;100.00
71004;BME280;59025;42.050;-8.660;2022-08-30T00:04:35;100870.38;;;18.46;100.00
71004;BME280;59025;42.050;-8.660;2022-08-30T00:07:03;100871.72;;;18.49;100.00
71004;BME280;59025;42.050;-8.660;2022-08-30T00:09:32;100871.72;;;18.49;100.00
71004;BME280;59025;42.050;-8.660;2022-08-30T00:12:00;100870.13;;;18.48;100.00
71004;BME280;59025;42.050;-8.660;2022-08-30T00:14:29;100871.16;;;18.47;100.00
71004;BME280;59025;42.050;-8.660;2022-08-30T00:16:56;100868.25;;;18.43;100.00
71004;BME280;59025;42.050;-8.660;2022-08-30T00:19:24;100867.72;;;18.41;100.00
71004;BME280;59025;42.050;-8.660;2022-08-30T00:21:51;100867.16;;;18.39;100.00
71004;BME280;59025;42.050;-8.660;2022-08-30T00:24:18;100864.16;;;18.31;100.00
71004;BME280;59025;42.050;-8.660;2022-08-30T00:26:47;100870.28;;;18.20;100.00
71004;BME280;59025;42.050;-8.660;2022-08-30T00:29:15;100874.63;;;18.14;100.00
71004;BME280;59025;42.050;-8.660;2022-08-30T00:31:42;100877.56;;;18.01;100.00
71004;BME280;59025;42.050;-8.660;2022-08-30T00:34:10;100878.34;;;18.02;100.00
71004;BME280;59025;42.050;-8.660;2022-08-30T00:36:37;100881.06;;;17.90;100.00
71004;BME280;59025;42.050;-8.660;2022-08-30T00:39:05;100883.59;;;17.85;100.00
71004;BME280;59025;42.050;-8.660;2022-08-30T00:41:32;100894.47;;;17.82;100.00
71004;BME280;59025;42.050;-8.660;2022-08-30T00:44:02;100898.81;;;17.77;100.00
71004;BME280;59025;42.050;-8.660;2022-08-30T00:46:30;100894.72;;;17.81;100.00
71004;BME280;59025;42.050;-8.660;2022-08-30T00:49:00;100902.28;;;17.82;100.00
71004;BME280;59025;42.050;-8.660;2022-08-30T00:51:29;100900.69;;;17.81;100.00
71004;BME280;59025;42.050;-8.660;2022-08-30T00:53:58;100903.88;;;17.83;100.00
71004;BME280;59025;42.050;-8.660;2022-08-30T00:56:28;100898.28;;;17.75;100.00
71004;BME280;59025;42.050;-8.660;2022-08-30T00:58:58;100894.06;;;17.74;100.00
71004;BME280;59025;42.050;-8.660;2022-08-30T01:01:28;100895.81;;;17.68;100.00
71004;BME280;59025;42.050;-8.660;2022-08-30T01:03:57;100890.63;;;17.68;100.00
71004;BME280;59025;42.050;-8.660;2022-08-30T01:06:25;100882.28;;;17.66;100.00
71004;BME280;59025;42.050;-8.660;2022-08-30T01:08:53;100888.88;;;17.57;100.00
71004;BME280;59025;42.050;-8.660;2022-08-30T01:11:22;100900.16;;;17.46;100.00
71004;BME280;59025;42.050;-8.660;2022-08-30T01:13:51;100897.00;;;17.44;100.00
71004;BME280;59025;42.050;-8.660;2022-08-30T01:16:21;100904.06;;;17.32;100.00
71004;BME280;59025;42.050;-8.660;2022-08-30T01:18:53;100907.13;;;17.29;100.00
71004;BME280;59025;42.050;-8.660;2022-08-30T01:21:28;100910.78;;;17.17;100.00
71004;BME280;59025;42.050;-8.660;2022-08-30T01:23:59;100914.50;;;17.21;100.00
71004;BME280;59025;42.050;-8.660;2022-08-30T01:26:29;100920.41;;;17.16;100.00
71004;BME280;59025;42.050;-8.660;2022-08-30T01:29:00;100919.00;;;17.25;100.00
71004;BME280;59025;42.050;-8.660;2022-08-30T01:31:28;100903.38;;;17.25;100.00
71004;BME280;59025;42.050;-8.660;2022-08-30T01:33:55;100912.34;;;17.18;100.00
71004;BME280;59025;42.050;-8.660;2022-08-30T01:36:23;100914.94;;;17.18;100.00
71004;BME280;59025;42.050;-8.660;2022-08-30T01:38:53;100911.69;;;17.22;100.00
71004;BME280;59025;42.050;-8.660;2022-08-30T01:41:25;100912.44;;;17.23;100.00
71004;BME280;59025;42.050;-8.660;2022-08-30T01:43:55;100913.78;;;17.25;100.00
71004;BME280;59025;42.050;-8.660;2022-08-30T01:46:25;100912.31;;;17.29;100.00
71004;BME280;59025;42.050;-8.660;2022-08-30T01:48:55;100908.38;;;17.27;100.00
71004;BME280;59025;42.050;-8.660;2022-08-30T01:51:25;100909.72;;;17.29;100.00
71004;BME280;59025;42.050;-8.660;2022-08-30T01:53:53;100918.75;;;17.38;100.00
71004;BME280;59025;42.050;-8.660;2022-08-30T01:56:23;100914.72;;;17.47;100.00
71004;BME280;59025;42.050;-8.660;2022-08-30T01:58:51;100902.13;;;17.56;100.00
71004;BME280;59025;42.050;-8.660;2022-08-30T02:01:22;100896.28;;;17.65;100.00
71004;BME280;59025;42.050;-8.660;2022-08-30T02:03:51;100900.47;;;17.66;100.00
71004;BME280;59025;42.050;-8.660;2022-08-30T02:06:21;100898.97;;;17.70;100.00
71004;BME280;59025;42.050;-8.660;2022-08-30T02:08:49;100904.81;;;17.77;100.00
71004;BME280;59025;42.050;-8.660;2022-08-30T02:11:16;100900.25;;;17.84;100.00
71004;BME280;59025;42.050;-8.660;2022-08-30T02:13:46;100898.81;;;17.77;100.00
71004;BME280;59025;42.050;-8.660;2022-08-30T02:16:17;100905.22;;;17.86;100.00
71004;BME280;59025;42.050;-8.660;2022-08-30T02:18:47;100907.81;;;17.86;100.00
71004;BME280;59025;42.050;-8.660;2022-08-30T02:21:15;100911.91;;;17.82;100.00
71004;BME280;59025;42.050;-8.660;2022-08-30T02:23:43;100911.44;;;17.68;100.00
71004;BME280;59025;42.050;-8.660;2022-08-30T02:26:11;100917.00;;;17.60;100.00
71004;BME280;59025;42.050;-8.660;2022-08-30T02:28:39;100918.44;;;17.51;100.00
71004;BME280;59025;42.050;-8.660;2022-08-30T02:31:08;100927.91;;;17.29;100.00
71004;BME280;59025;42.050;-8.660;2022-08-30T02:33:36;100931.03;;;17.15;100.00
71004;BME280;59025;42.050;-8.660;2022-08-30T02:36:04;100936.38;;;17.08;100.00
71004;BME280;59025;42.050;-8.660;2022-08-30T02:38:32;100939.56;;;16.99;100.00
71004;BME280;59025;42.050;-8.660;2022-08-30T02:41:00;100951.13;;;16.91;100.00
71004;BME280;59025;42.050;-8.660;2022-08-30T02:43:27;100950.03;;;16.87;100.00
71004;BME280;59025;42.050;-8.660;2022-08-30T02:45:55;100957.47;;;16.84;100.00
71004;BME280;59025;42.050;-8.660;2022-08-30T02:48:24;100960.84;;;16.84;100.00
71004;BME280;59025;42.050;-8.660;2022-08-30T02:50:52;100949.53;;;16.90;100.00
71004;BME280;59025;42.050;-8.660;2022-08-30T02:53:20;100938.94;;;16.80;100.00
71004;BME280;59025;42.050;-8.660;2022-08-30T02:55:48;100950.47;;;16.73;100.00
71004;BME280;59025;42.050;-8.660;2022-08-30T02:58:15;100966.00;;;16.68;100.00
71004;BME280;59025;42.050;-8.660;2022-08-30T03:00:43;100964.75;;;16.59;100.00
71004;BME280;59025;42.050;-8.660;2022-08-30T03:03:10;100972.88;;;16.62;100.00
71004;BME280;59025;42.050;-8.660;2022-08-30T03:05:39;100971.84;;;16.63;100.00
71004;BME280;59025;42.050;-8.660;2022-08-30T03:08:07;100978.97;;;16.68;100.00
71004;BME280;59025;42.050;-8.660;2022-08-30T03:10:34;100980.31;;;16.70;100.00
71004;BME280;59025;42.050;-8.660;2022-08-30T03:13:03;100975.91;;;16.71;100.00
71004;BME280;59025;42.050;-8.660;2022-08-30T03:15:32;100969.78;;;16.77;100.00
71004;BME280;59025;42.050;-8.660;2022-08-30T03:18:00;100948.31;;;16.81;100.00
71004;BME280;59025;42.050;-8.660;2022-08-30T03:20:28;100939.09;;;16.62;100.00
71004;BME280;59025;42.050;-8.660;2022-08-30T03:22:57;100953.81;;;16.57;100.00
71004;BME280;59025;42.050;-8.660;2022-08-30T03:25:24;100957.19;;;16.57;100.00
71004;BME280;59025;42.050;-8.660;2022-08-30T03:27:52;100941.38;;;16.59;100.00
71004;BME280;59025;42.050;-8.660;2022-08-30T03:30:20;100950.19;;;16.58;100.00
71004;BME280;59025;42.050;-8.660;2022-08-30T03:32:47;100975.59;;;16.56;100.00
71004;BME280;59025;42.050;-8.660;2022-08-30T03:35:15;100987.59;;;16.57;100.00
71004;BME280;59025;42.050;-8.660;2022-08-30T03:37:43;100997.50;;;16.71;100.00
71004;BME280;59025;42.050;-8.660;2022-08-30T03:40:19;100998.28;;;16.83;100.00
71004;BME280;59025;42.050;-8.660;2022-08-30T03:42:47;100992.03;;;16.96;100.00
71004;BME280;59025;42.050;-8.660;2022-08-30T03:45:16;100972.13;;;16.90;100.00
71004;BME280;59025;42.050;-8.660;2022-08-30T03:47:44;100956.09;;;16.81;100.00
71004;BME280;59025;42.050;-8.660;2022-08-30T03:50:13;100956.59;;;16.78;100.00
71004;BME280;59025;42.050;-8.660;2022-08-30T03:52:40;100962.00;;;16.77;100.00
71004;BME280;59025;42.050;-8.660;2022-08-30T03:55:12;100972.72;;;16.80;100.00
71004;BME280;59025;42.050;-8.660;2022-08-30T03:57:39;100977.00;;;16.86;100.00
71004;BME280;59025;42.050;-8.660;2022-08-30T04:00:09;100970.13;;;16.92;100.00
71004;BME280;59025;42.050;-8.660;2022-08-30T04:02:37;100969.41;;;16.96;100.00
71004;BME280;59025;42.050;-8.660;2022-08-30T04:05:05;100965.69;;;16.92;100.00
71004;BME280;59025;42.050;-8.660;2022-08-30T04:07:33;100969.47;;;16.85;100.00
71004;BME280;59025;42.050;-8.660;2022-08-30T04:10:01;100968.09;;;16.82;100.00
71004;BME280;59025;42.050;-8.660;2022-08-30T04:12:30;100976.25;;;16.74;100.00
71004;BME280;59025;42.050;-8.660;2022-08-30T04:14:57;100975.91;;;16.71;100.00
71004;BME280;59025;42.050;-8.660;2022-08-30T04:17:24;100983.59;;;16.66;100.00
71004;BME280;59025;42.050;-8.660;2022-08-30T04:19:52;100975.69;;;16.61;100.00
71004;BME280;59025;42.050;-8.660;2022-08-30T04:22:19;100988.25;;;16.52;100.00
71004;BME280;59025;42.050;-8.660;2022-08-30T04:24:47;100994.47;;;16.51;100.00
71004;BME280;59025;42.050;-8.660;2022-08-30T04:27:14;100995.00;;;16.53;100.00
71004;BME280;59025;42.050;-8.660;2022-08-30T04:29:46;100994.56;;;16.56;100.00
71004;BME280;59025;42.050;-8.660;2022-08-30T04:32:14;100995.44;;;16.62;100.00
71004;BME280;59025;42.050;-8.660;2022-08-30T04:34:42;100993.22;;;16.65;100.00
71004;BME280;59025;42.050;-8.660;2022-08-30T04:37:10;100999.31;;;16.71;100.00
71004;BME280;59025;42.050;-8.660;2022-08-30T04:39:38;100991.63;;;16.76;100.00
71004;BME280;59025;42.050;-8.660;2022-08-30T04:42:05;100988.22;;;16.75;100.00
71004;BME280;59025;42.050;-8.660;2022-08-30T04:44:36;101001.47;;;16.74;100.00
71004;BME280;59025;42.050;-8.660;2022-08-30T04:47:05;100997.94;;;16.68;100.00
71004;BME280;59025;42.050;-8.660;2022-08-30T04:49:33;100994.22;;;16.64;100.00
71004;BME280;59025;42.050;-8.660;2022-08-30T04:52:00;100999.06;;;16.61;100.00
71004;BME280;59025;42.050;-8.660;2022-08-30T04:54:28;101009.25;;;16.62;100.00
71004;BME280;59025;42.050;-8.660;2022-08-30T04:56:55;101017.59;;;16.64;100.00
71004;BME280;59025;42.050;-8.660;2022-08-30T04:59:23;101008.00;;;16.65;100.00
71004;BME280;59025;42.050;-8.660;2022-08-30T05:01:50;101011.41;;;16.65;100.00
71004;BME280;59025;42.050;-8.660;2022-08-30T05:04:19;101007.69;;;16.61;100.00
71004;BME280;59025;42.050;-8.660;2022-08-30T05:06:46;101006.88;;;16.61;100.00
71004;BME280;59025;42.050;-8.660;2022-08-30T05:09:14;101015.91;;;16.58;100.00
71004;BME280;59025;42.050;-8.660;2022-08-30T05:11:41;101014.22;;;16.52;100.00
71004;BME280;59025;42.050;-8.660;2022-08-30T05:14:09;101022.25;;;16.51;100.00
71004;BME280;59025;42.050;-8.660;2022-08-30T05:16:36;101024.59;;;16.52;100.00
71004;BME280;59025;42.050;-8.660;2022-08-30T05:19:04;101027.53;;;16.56;100.00
71004;BME280;59025;42.050;-8.660;2022-08-30T05:21:34;101029.47;;;16.60;100.00
71004;BME280;59025;42.050;-8.660;2022-08-30T05:24:01;101029.59;;;16.65;100.00
71004;BME280;59025;42.050;-8.660;2022-08-30T05:26:31;101036.69;;;16.70;100.00
71004;BME280;59025;42.050;-8.660;2022-08-30T05:28:59;101019.66;;;16.74;100.00
71004;BME280;59025;42.050;-8.660;2022-08-30T05:31:32;101017.38;;;16.77;100.00
71004;BME280;59025;42.050;-8.660;2022-08-30T05:34:00;101011.81;;;16.85;100.00
71004;BME280;59025;42.050;-8.660;2022-08-30T05:36:29;101015.06;;;16.92;100.00
71004;BME280;59025;42.050;-8.660;2022-08-30T05:38:58;101012.59;;;16.97;100.00
71004;BME280;59025;42.050;-8.660;2022-08-30T05:41:26;101022.53;;;16.89;100.00
71004;BME280;59025;42.050;-8.660;2022-08-30T05:43:57;101027.31;;;16.92;100.00
71004;BME280;59025;42.050;-8.660;2022-08-30T05:46:25;101034.06;;;16.93;100.00
71004;BME280;59025;42.050;-8.660;2022-08-30T05:48:55;101022.09;;;16.92;100.00
71004;BME280;59025;42.050;-8.660;2022-08-30T05:51:24;101027.78;;;16.77;100.00
71004;BME280;59025;42.050;-8.660;2022-08-30T05:53:54;101034.31;;;16.68;100.00
71004;BME280;59025;42.050;-8.660;2022-08-30T05:56:26;101042.00;;;16.63;100.00
71004;BME280;59025;42.050;-8.660;2022-08-30T05:58:54;101041.34;;;16.56;100.00
71004;BME280;59025;42.050;-8.660;2022-08-30T06:01:23;101043.03;;;16.39;100.00
71004;BME280;59025;42.050;-8.660;2022-08-30T06:03:53;101060.59;;;16.26;100.00
71004;BME280;59025;42.050;-8.660;2022-08-30T06:06:22;101058.75;;;16.03;100.00
71004;BME280;59025;42.050;-8.660;2022-08-30T06:08:49;101067.28;;;15.92;100.00
71004;BME280;59025;42.050;-8.660;2022-08-30T06:11:18;101091.00;;;15.96;100.00
71004;BME280;59025;42.050;-8.660;2022-08-30T06:13:49;101073.72;;;16.01;100.00
71004;BME280;59025;42.050;-8.660;2022-08-30T06:16:19;101082.22;;;16.08;100.00
71004;BME280;59025;42.050;-8.660;2022-08-30T06:18:47;101086.63;;;16.19;100.00
71004;BME280;59025;42.050;-8.660;2022-08-30T06:21:15;101085.66;;;16.32;100.00
71004;BME280;59025;42.050;-8.660;2022-08-30T06:23:43;101074.75;;;16.41;100.00
71004;BME280;59025;42.050;-8.660;2022-08-30T06:26:11;101077.69;;;16.56;100.00
71004;BME280;59025;42.050;-8.660;2022-08-30T06:28:38;101085.72;;;16.66;100.00
71004;BME280;59025;42.050;-8.660;2022-08-30T06:31:08;101074.34;;;16.79;100.00
71004;BME280;59025;42.050;-8.660;2022-08-30T06:33:36;101069.00;;;16.85;100.00
71004;BME280;59025;42.050;-8.660;2022-08-30T06:36:05;101076.91;;;16.90;100.00
71004;BME280;59025;42.050;-8.660;2022-08-30T06:38:33;101077.25;;;17.05;100.00
71004;BME280;59025;42.050;-8.660;2022-08-30T06:41:04;101055.38;;;17.18;100.00
71004;BME280;59025;42.050;-8.660;2022-08-30T06:43:32;101051.78;;;17.19;100.00
71004;BME280;59025;42.050;-8.660;2022-08-30T06:46:01;101060.50;;;17.13;100.00
71004;BME280;59025;42.050;-8.660;2022-08-30T06:48:30;101067.72;;;17.22;100.00
71004;BME280;59025;42.050;-8.660;2022-08-30T06:50:58;101052.41;;;17.93;100.00
71004;BME280;59025;42.050;-8.660;2022-08-30T06:53:26;101023.00;;;18.42;100.00
71004;BME280;59025;42.050;-8.660;2022-08-30T06:55:55;101004.75;;;19.45;100.00
71004;BME280;59025;42.050;-8.660;2022-08-30T06:58:23;100989.63;;;20.46;100.00
71004;BME280;59025;42.050;-8.660;2022-08-30T07:00:51;100988.69;;;21.29;100.00
71004;BME280;59025;42.050;-8.660;2022-08-30T07:03:19;100978.22;;;21.24;100.00
71004;BME280;59025;42.050;-8.660;2022-08-30T07:05:48;100981.72;;;21.74;100.00
71004;BME280;59025;42.050;-8.660;2022-08-30T07:08:16;100990.84;;;22.02;100.00
71004;BME280;59025;42.050;-8.660;2022-08-30T07:10:43;101003.81;;;22.87;100.00
71004;BME280;59025;42.050;-8.660;2022-08-30T07:13:11;100990.53;;;23.60;100.00
71004;BME280;59025;42.050;-8.660;2022-08-30T07:15:40;100997.38;;;24.23;100.00
71004;BME280;59025;42.050;-8.660;2022-08-30T07:18:08;100989.34;;;24.38;100.00
71004;BME280;59025;42.050;-8.660;2022-08-30T07:20:54;100997.91;;;24.49;100.00
71004;BME280;59025;42.050;-8.660;2022-08-30T07:23:22;100990.19;;;23.33;100.00
71004;BME280;59025;42.050;-8.660;2022-08-30T07:25:49;100999.38;;;22.72;100.00
71004;BME280;59025;42.050;-8.660;2022-08-30T07:28:17;101008.88;;;22.58;100.00
71004;BME280;59025;42.050;-8.660;2022-08-30T07:30:44;101008.28;;;22.81;100.00
71004;BME280;59025;42.050;-8.660;2022-08-30T07:33:13;101006.81;;;22.40;100.00
71004;BME280;59025;42.050;-8.660;2022-08-30T07:35:41;101003.78;;;22.92;100.00
71004;BME280;59025;42.050;-8.660;2022-08-30T07:38:15;101005.28;;;21.84;100.00
71004;BME280;59025;42.050;-8.660;2022-08-30T07:40:44;101001.75;;;22.74;100.00
71004;BME280;59025;42.050;-8.660;2022-08-30T07:43:13;101007.91;;;24.23;100.00
71004;BME280;59025;42.050;-8.660;2022-08-30T07:45:42;101003.50;;;23.47;100.00
71004;BME280;59025;42.050;-8.660;2022-08-30T07:48:11;100999.91;;;22.79;100.00
71004;BME280;59025;42.050;-8.660;2022-08-30T07:50:43;101006.84;;;22.25;100.00
71004;BME280;59025;42.050;-8.660;2022-08-30T07:53:13;101022.00;;;22.58;100.00
71004;BME280;59025;42.050;-8.660;2022-08-30T07:55:40;101015.75;;;22.34;100.00
71004;BME280;59025;42.050;-8.660;2022-08-30T07:58:08;101017.34;;;21.80;100.00
71004;BME280;59025;42.050;-8.660;2022-08-30T08:00:35;101020.94;;;21.49;100.00
71004;BME280;59025;42.050;-8.660;2022-08-30T08:03:07;101035.50;;;21.15;100.00
71004;BME280;59025;42.050;-8.660;2022-08-30T08:05:38;101037.81;;;21.02;100.00
71004;BME280;59025;42.050;-8.660;2022-08-30T08:08:06;101045.13;;;21.00;100.00
71004;BME280;59025;42.050;-8.660;2022-08-30T08:10:37;101047.38;;;20.86;100.00
71004;BME280;59025;42.050;-8.660;2022-08-30T08:13:05;101050.66;;;20.62;100.00
71004;BME280;59025;42.050;-8.660;2022-08-30T08:15:33;101062.81;;;20.46;100.00
71004;BME280;59025;42.050;-8.660;2022-08-30T08:18:00;101053.63;;;20.39;100.00
71004;BME280;59025;42.050;-8.660;2022-08-30T08:20:28;101061.78;;;20.42;100.00
71004;BME280;59025;42.050;-8.660;2022-08-30T08:22:56;101067.44;;;20.34;100.00
71004;BME280;59025;42.050;-8.660;2022-08-30T08:25:27;101061.81;;;20.16;100.00
71004;BME280;59025;42.050;-8.660;2022-08-30T08:27:56;101077.38;;;20.32;100.00
71004;BME280;59025;42.050;-8.660;2022-08-30T08:30:23;101066.44;;;20.40;100.00
71004;BME280;59025;42.050;-8.660;2022-08-30T08:32:51;101065.03;;;20.59;100.00
71004;BME280;59025;42.050;-8.660;2022-08-30T08:35:19;101068.19;;;20.66;100.00
71004;BME280;59025;42.050;-8.660;2022-08-30T08:37:49;101069.00;;;20.72;100.00
71004;BME280;59025;42.050;-8.660;2022-08-30T08:40:20;101082.06;;;20.72;100.00
71004;BME280;59025;42.050;-8.660;2022-08-30T08:42:58;101068.31;;;20.81;100.00
71004;BME280;59025;42.050;-8.660;2022-08-30T08:45:35;101065.75;;;20.91;100.00
71004;BME280;59025;42.050;-8.660;2022-08-30T08:48:10;101080.22;;;21.09;100.00
71004;BME280;59025;42.050;-8.660;2022-08-30T08:50:40;101078.69;;;21.23;100.00
71004;BME280;59025;42.050;-8.660;2022-08-30T08:53:32;101062.53;;;21.36;100.00
71004;BME280;59025;42.050;-8.660;2022-08-30T08:56:05;101075.13;;;21.49;100.00
71004;BME280;59025;42.050;-8.660;2022-08-30T08:58:41;101067.63;;;21.72;100.00
71004;BME280;59025;42.050;-8.660;2022-08-30T09:01:09;101074.19;;;22.00;100.00
71004;BME280;59025;42.050;-8.660;2022-08-30T09:03:38;101077.09;;;22.18;100.00
71004;BME280;59025;42.050;-8.660;2022-08-30T09:06:23;101073.94;;;22.41;100.00
71004;BME280;59025;42.050;-8.660;2022-08-30T09:12:15;101067.53;;;22.97;100.00
71004;BME280;59025;42.050;-8.660;2022-08-30T09:14:47;101065.84;;;23.31;100.00
71004;BME280;59025;42.050;-8.660;2022-08-30T09:17:18;101065.16;;;23.59;100.00
71004;BME280;59025;42.050;-8.660;2022-08-30T09:19:56;101062.88;;;23.91;100.00
71004;BME280;59025;42.050;-8.660;2022-08-30T09:22:30;101065.41;;;24.01;100.00
71004;BME280;59025;42.050;-8.660;2022-08-30T09:25:00;101063.94;;;23.85;100.00
71004;BME280;59025;42.050;-8.660;2022-08-30T09:27:31;101064.78;;;23.76;100.00
71004;BME280;59025;42.050;-8.660;2022-08-30T09:30:07;101067.06;;;23.92;100.00
71004;BME280;59025;42.050;-8.660;2022-08-30T09:32:38;101070.78;;;23.91;100.00
71004;BME280;59025;42.050;-8.660;2022-08-30T09:35:09;101072.34;;;23.92;100.00
71004;BME280;59025;42.050;-8.660;2022-08-30T09:37:43;101079.66;;;23.95;100.00
71004;BME280;59025;42.050;-8.660;2022-08-30T09:40:21;101083.38;;;23.89;100.00
71004;BME280;59025;42.050;-8.660;2022-08-30T09:43:06;101074.56;;;23.70;100.00
71004;BME280;59025;42.050;-8.660;2022-08-30T09:45:37;101082.41;;;23.75;100.00
71004;BME280;59025;42.050;-8.660;2022-08-30T09:48:26;101081.28;;;23.91;100.00
71004;BME280;59025;42.050;-8.660;2022-08-30T09:51:11;101084.78;;;23.77;100.00
71004;BME280;59025;42.050;-8.660;2022-08-30T09:53:49;101086.78;;;23.95;100.00
71004;BME280;59025;42.050;-8.660;2022-08-30T09:56:23;101079.38;;;23.97;100.00
71004;BME280;59025;42.050;-8.660;2022-08-30T09:59:00;101087.94;;;24.12;100.00
71004;BME280;59025;42.050;-8.660;2022-08-30T10:01:32;101089.53;;;24.13;100.00
71004;BME280;59025;42.050;-8.660;2022-08-30T10:04:10;101081.75;;;24.27;100.00
71004;BME280;59025;42.050;-8.660;2022-08-30T10:06:48;101082.72;;;24.41;100.00
71004;BME280;59025;42.050;-8.660;2022-08-30T10:09:28;101085.50;;;24.21;100.00
71004;BME280;59025;42.050;-8.660;2022-08-30T10:12:03;101077.66;;;24.16;100.00
71004;BME280;59025;42.050;-8.660;2022-08-30T10:14:50;101083.66;;;24.21;100.00
71004;BME280;59025;42.050;-8.660;2022-08-30T10:17:35;101088.78;;;24.08;100.00
71004;BME280;59025;42.050;-8.660;2022-08-30T10:20:16;101094.13;;;23.93;100.00
71004;BME280;59025;42.050;-8.660;2022-08-30T10:22:49;101095.31;;;24.10;100.00
71004;BME280;59025;42.050;-8.660;2022-08-30T10:25:23;101088.06;;;23.97;100.00
71004;BME280;59025;42.050;-8.660;2022-08-30T10:27:57;101087.09;;;23.78;100.00
71004;BME280;59025;42.050;-8.660;2022-08-30T10:30:29;101093.13;;;23.89;100.00
71004;BME280;59025;42.050;-8.660;2022-08-30T10:33:04;101097.31;;;23.90;100.00
71004;BME280;59025;42.050;-8.660;2022-08-30T10:35:38;101089.69;;;23.93;100.00
71004;BME280;59025;42.050;-8.660;2022-08-30T10:38:10;101094.25;;;24.11;100.00
71004;BME280;59025;42.050;-8.660;2022-08-30T10:40:46;101104.00;;;24.11;100.00
71004;BME280;59025;42.050;-8.660;2022-08-30T10:43:35;101098.47;;;24.12;100.00
71004;BME280;59025;42.050;-8.660;2022-08-30T10:46:09;101100.66;;;24.00;100.00
71004;BME280;59025;42.050;-8.660;2022-08-30T10:48:43;101097.81;;;24.30;100.00
71004;BME280;59025;42.050;-8.660;2022-08-30T10:51:15;101098.63;;;24.54;100.00
71004;BME280;59025;42.050;-8.660;2022-08-30T10:53:50;101094.94;;;24.55;100.00
71004;BME280;59025;42.050;-8.660;2022-08-30T10:56:21;101086.41;;;24.68;100.00
71004;BME280;59025;42.050;-8.660;2022-08-30T10:58:51;101087.75;;;24.89;100.00
71004;BME280;59025;42.050;-8.660;2022-08-30T11:01:32;101082.44;;;24.94;100.00
71004;BME280;59025;42.050;-8.660;2022-08-30T11:07:35;101064.19;;;25.26;100.00
71004;BME280;59025;42.050;-8.660;2022-08-30T11:10:24;101070.09;;;25.13;100.00
71004;BME280;59025;42.050;-8.660;2022-08-30T11:12:59;101072.72;;;25.55;100.00
71004;BME280;59025;42.050;-8.660;2022-08-30T11:15:34;101075.50;;;25.64;100.00
71004;BME280;59025;42.050;-8.660;2022-08-30T11:18:08;101075.13;;;25.70;100.00
71004;BME280;59025;42.050;-8.660;2022-08-30T11:20:40;101068.50;;;25.73;100.00
71004;BME280;59025;42.050;-8.660;2022-08-30T11:23:31;101059.84;;;26.04;100.00
71004;BME280;59025;42.050;-8.660;2022-08-30T11:26:02;101061.59;;;26.27;100.00
71004;BME280;59025;42.050;-8.660;2022-08-30T11:29:01;101062.41;;;26.09;100.00
71004;BME280;59025;42.050;-8.660;2022-08-30T11:31:38;101054.78;;;25.94;100.00
71004;BME280;59025;42.050;-8.660;2022-08-30T11:34:06;101054.91;;;25.84;100.00
71004;BME280;59025;42.050;-8.660;2022-08-30T11:36:59;101053.81;;;25.85;100.00
71004;BME280;59025;42.050;-8.660;2022-08-30T11:39:56;101055.19;;;26.01;100.00
71004;BME280;59025;42.050;-8.660;2022-08-30T11:42:31;101059.38;;;26.02;100.00
71004;BME280;59025;42.050;-8.660;2022-08-30T11:48:05;101053.25;;;25.88;100.00
71004;BME280;59025;42.050;-8.660;2022-08-30T11:50:40;101048.91;;;25.97;100.00
71004;BME280;59025;42.050;-8.660;2022-08-30T11:53:18;101056.16;;;26.05;100.00
71004;BME280;59025;42.050;-8.660;2022-08-30T11:55:58;101056.47;;;26.04;100.00
71004;BME280;59025;42.050;-8.660;2022-08-30T11:58:41;101056.81;;;25.97;100.00
71004;BME280;59025;42.050;-8.660;2022-08-30T12:01:16;101054.47;;;25.96;100.00
71004;BME280;59025;42.050;-8.660;2022-08-30T12:03:44;101045.69;;;26.00;100.00
71004;BME280;59025;42.050;-8.660;2022-08-30T12:06:45;101056.41;;;25.90;100.00
71004;BME280;59025;42.050;-8.660;2022-08-30T12:12:59;101039.94;;;25.80;100.00
71004;BME280;59025;42.050;-8.660;2022-08-30T12:15:52;101043.28;;;25.85;100.00
71004;BME280;59025;42.050;-8.660;2022-08-30T12:18:26;101045.84;;;25.90;100.00
71004;BME280;59025;42.050;-8.660;2022-08-30T12:20:53;101036.63;;;26.06;100.00
71004;BME280;59025;42.050;-8.660;2022-08-30T12:23:32;101035.31;;;26.22;100.00
71004;BME280;59025;42.050;-8.660;2022-08-30T12:26:17;101038.72;;;26.23;100.00
71004;BME280;59025;42.050;-8.660;2022-08-30T12:28:47;101036.09;;;26.36;100.00
71004;BME280;59025;42.050;-8.660;2022-08-30T12:31:19;101039.13;;;26.43;100.00
71004;BME280;59025;42.050;-8.660;2022-08-30T12:33:49;101036.03;;;26.55;100.00
71004;BME280;59025;42.050;-8.660;2022-08-30T12:36:33;101050.34;;;26.67;100.00
71004;BME280;59025;42.050;-8.660;2022-08-30T12:39:10;101033.28;;;27.00;100.00
71004;BME280;59025;42.050;-8.660;2022-08-30T12:41:38;101031.22;;;27.24;100.00
71004;BME280;59025;42.050;-8.660;2022-08-30T12:44:11;101026.72;;;27.47;100.00
71004;BME280;59025;42.050;-8.660;2022-08-30T12:46:41;101029.56;;;27.72;100.00
71004;BME280;59025;42.050;-8.660;2022-08-30T12:49:11;101022.47;;;27.37;100.00
71004;BME280;59025;42.050;-8.660;2022-08-30T12:51:41;101013.69;;;27.28;100.00
71004;BME280;59025;42.050;-8.660;2022-08-30T12:54:15;101012.00;;;27.32;100.00
71004;BME280;59025;42.050;-8.660;2022-08-30T12:56:54;101004.69;;;27.16;100.00
71004;BME280;59025;42.050;-8.660;2022-08-30T12:59:49;101010.59;;;26.99;100.00
71004;BME280;59025;42.050;-8.660;2022-08-30T13:02:20;101010.16;;;27.55;100.00
71004;BME280;59025;42.050;-8.660;2022-08-30T13:04:49;101009.56;;;27.22;100.00